Time;durP1;ratioP1;P1;durP2;ratioP2;P2;SDS_P1;SDS_P2;PMS_P1;PMS_P2;Temp;Humidity;BMP_temperature;BMP_pressure;BME280_temperature;BME280_humidity;BME280_pressure;Samples;Min_cycle;Max_cycle;Signal;HPM_P1;HPM_P2
2023/08/21 00:01:21;;;;;;;5.35;1.52;;;16.00;99.90;;;;;;5132162;27;20051;-58
2023/08/21 00:03:50;;;;;;;8.68;3.13;;;16.00;99.90;;;;;;5126760;27;20059;-56
2023/08/21 00:06:16;;;;;;;3.28;1.60;;;16.00;99.90;;;;;;5125358;27;20098;-57
2023/08/21 00:08:42;;;;;;;4.38;1.90;;;15.90;99.90;;;;;;5131305;27;20087;-57
2023/08/21 00:11:07;;;;;;;7.35;2.75;;;15.90;99.90;;;;;;5122419;27;20059;-57
2023/08/21 00:13:33;;;;;;;6.57;1.88;;;15.90;99.90;;;;;;5125420;27;20912;-57
2023/08/21 00:15:59;;;;;;;4.82;1.98;;;15.90;99.90;;;;;;5105471;27;20055;-60
2023/08/21 00:18:24;;;;;;;3.60;2.05;;;15.80;99.90;;;;;;5125406;27;20089;-59
2023/08/21 00:20:50;;;;;;;1.70;1.52;;;15.80;99.90;;;;;;5125378;27;20063;-57
2023/08/21 00:23:16;;;;;;;3.38;1.50;;;15.70;99.90;;;;;;5103967;27;20043;-58
2023/08/21 00:25:49;;;;;;;7.07;1.80;;;15.80;99.90;;;;;;5107558;27;20460;-58
2023/08/21 00:28:15;;;;;;;6.63;2.77;;;15.70;99.90;;;;;;5107678;27;20571;-56
2023/08/21 00:30:42;;;;;;;1.92;1.80;;;15.70;99.90;;;;;;5112439;27;20062;-57
2023/08/21 00:33:08;;;;;;;4.05;2.42;;;15.60;99.90;;;;;;5125752;27;20309;-56
2023/08/21 00:35:33;;;;;;;5.22;2.15;;;15.60;99.90;;;;;;5128873;27;20086;-59
2023/08/21 00:37:59;;;;;;;5.70;1.85;;;15.60;99.90;;;;;;5130571;27;20045;-58
2023/08/21 00:40:24;;;;;;;2.15;1.73;;;15.60;99.90;;;;;;5111288;27;20503;-59
2023/08/21 00:42:50;;;;;;;4.43;1.92;;;15.50;99.90;;;;;;5129478;27;20119;-58
2023/08/21 00:45:16;;;;;;;6.30;2.45;;;15.50;99.90;;;;;;5107376;27;20051;-57
2023/08/21 00:47:43;;;;;;;6.93;2.10;;;15.40;99.90;;;;;;5122509;27;20058;-56
2023/08/21 00:50:11;;;;;;;4.45;1.80;;;15.40;99.90;;;;;;5107043;27;21001;-59
2023/08/21 00:52:39;;;;;;;4.30;2.13;;;15.30;99.90;;;;;;5113207;27;20051;-58
2023/08/21 00:55:06;;;;;;;3.72;1.60;;;15.30;99.90;;;;;;5118286;27;20058;-58
2023/08/21 00:57:33;;;;;;;5.63;1.58;;;15.30;99.90;;;;;;5129149;27;20083;-58
2023/08/21 01:00:00;;;;;;;1.73;1.50;;;15.30;99.90;;;;;;5109615;27;20158;-57
2023/08/21 01:02:26;;;;;;;3.22;1.73;;;15.30;99.90;;;;;;5125899;27;20079;-57
2023/08/21 01:04:52;;;;;;;3.05;1.73;;;15.20;99.90;;;;;;5129825;27;20162;-57
2023/08/21 01:07:17;;;;;;;2.28;1.40;;;15.20;99.90;;;;;;5126034;27;20626;-58
2023/08/21 01:09:49;;;;;;;3.72;1.45;;;15.20;99.90;;;;;;5130730;27;20074;-57
2023/08/21 01:12:36;;;;;;;3.70;1.65;;;15.20;99.90;;;;;;5116242;27;20051;-56
2023/08/21 01:15:06;;;;;;;4.78;1.67;;;15.10;99.90;;;;;;5127678;27;20495;-57
2023/08/21 01:17:34;;;;;;;2.38;1.10;;;15.10;99.90;;;;;;5128120;27;20050;-58
2023/08/21 01:20:00;;;;;;;2.83;1.23;;;15.10;99.90;;;;;;5124651;27;20055;-57
2023/08/21 01:22:37;;;;;;;2.65;1.50;;;15.10;99.90;;;;;;5130766;27;20047;-56
2023/08/21 01:25:07;;;;;;;4.20;1.17;;;15.00;99.90;;;;;;5123912;27;20174;-57
2023/08/21 01:27:34;;;;;;;4.15;1.45;;;15.00;99.90;;;;;;5132608;27;20054;-57
2023/08/21 01:30:02;;;;;;;5.93;1.35;;;15.00;99.90;;;;;;5126094;27;20428;-58
2023/08/21 01:32:42;;;;;;;2.65;1.42;;;14.90;99.90;;;;;;5128397;27;20051;-57
2023/08/21 01:35:10;;;;;;;1.80;1.10;;;14.90;99.90;;;;;;5127767;27;20066;-56
2023/08/21 01:37:36;;;;;;;4.03;1.42;;;14.90;99.90;;;;;;5104943;27;20064;-57
2023/08/21 01:40:02;;;;;;;1.77;1.45;;;14.80;99.90;;;;;;5127323;27;20051;-56
2023/08/21 01:42:28;;;;;;;3.33;1.75;;;14.80;99.90;;;;;;5126133;27;20058;-56
2023/08/21 01:44:54;;;;;;;2.08;1.33;;;14.70;99.90;;;;;;5127003;27;20142;-56
2023/08/21 01:47:20;;;;;;;1.75;1.40;;;14.60;99.90;;;;;;5128638;27;20069;-56
2023/08/21 01:49:52;;;;;;;2.03;1.55;;;14.60;99.90;;;;;;5106155;27;20050;-56
2023/08/21 01:52:18;;;;;;;1.85;1.48;;;14.70;99.90;;;;;;5110252;27;20055;-56
2023/08/21 01:54:44;;;;;;;3.90;1.60;;;14.70;99.90;;;;;;5125946;27;20093;-56
2023/08/21 01:57:09;;;;;;;4.22;1.92;;;14.70;99.90;;;;;;5129444;27;20520;-56
2023/08/21 01:59:35;;;;;;;1.45;1.30;;;14.60;99.90;;;;;;5097223;27;20044;-57
2023/08/21 02:02:01;;;;;;;4.22;2.25;;;14.60;99.90;;;;;;5115402;27;20059;-56
2023/08/21 02:04:27;;;;;;;3.05;1.42;;;14.60;99.90;;;;;;5128066;27;20511;-56
2023/08/21 02:06:52;;;;;;;1.80;1.33;;;14.50;99.90;;;;;;5105209;27;20055;-56
2023/08/21 02:09:18;;;;;;;1.10;0.93;;;14.50;99.90;;;;;;5111383;27;20531;-56
2023/08/21 02:11:44;;;;;;;1.92;0.82;;;14.50;99.90;;;;;;5125625;27;20047;-56
2023/08/21 02:14:09;;;;;;;1.27;0.77;;;14.40;99.90;;;;;;5108396;27;20063;-56
2023/08/21 02:16:35;;;;;;;2.85;0.80;;;14.40;99.90;;;;;;5120691;27;20077;-56
2023/08/21 02:19:01;;;;;;;1.17;0.82;;;14.30;99.90;;;;;;5121382;27;20054;-56
2023/08/21 02:21:26;;;;;;;1.77;1.55;;;14.40;99.90;;;;;;5093864;27;20420;-56
2023/08/21 02:23:52;;;;;;;1.63;1.27;;;14.40;99.90;;;;;;5123406;27;20062;-56
2023/08/21 02:26:19;;;;;;;3.25;1.40;;;14.30;99.90;;;;;;5111432;27;20059;-60
2023/08/21 02:28:49;;;;;;;1.38;0.90;;;14.20;99.90;;;;;;5089744;27;1087239;-62
2023/08/21 02:31:15;;;;;;;0.90;0.80;;;14.10;99.90;;;;;;5117647;27;20059;-58
2023/08/21 02:33:41;;;;;;;3.70;1.88;;;14.00;99.90;;;;;;5125303;27;20407;-58
2023/08/21 02:36:07;;;;;;;0.70;0.57;;;14.00;99.90;;;;;;5124884;27;20587;-57
2023/08/21 02:38:33;;;;;;;1.50;0.80;;;13.90;99.90;;;;;;5129332;27;20123;-58
2023/08/21 02:40:58;;;;;;;2.17;1.08;;;13.90;99.90;;;;;;5125674;27;20378;-56
2023/08/21 02:43:24;;;;;;;1.40;0.93;;;13.80;99.90;;;;;;5128124;27;20051;-56
2023/08/21 02:45:50;;;;;;;3.17;1.30;;;13.90;99.90;;;;;;5123506;27;20523;-55
2023/08/21 02:48:16;;;;;;;2.97;1.10;;;13.80;99.90;;;;;;5129223;27;20385;-57
2023/08/21 02:50:42;;;;;;;2.13;1.10;;;13.80;99.90;;;;;;5124393;27;20063;-58
2023/08/21 02:53:07;;;;;;;1.27;0.93;;;13.80;99.90;;;;;;5128431;27;20055;-57
2023/08/21 02:55:34;;;;;;;1.25;1.15;;;13.50;99.90;;;;;;5125775;27;20729;-57
2023/08/21 02:57:59;;;;;;;1.45;1.00;;;13.40;99.90;;;;;;5125753;27;20123;-58
2023/08/21 03:00:25;;;;;;;2.28;1.45;;;13.40;99.90;;;;;;5132372;27;20051;-57
2023/08/21 03:02:51;;;;;;;2.47;1.42;;;13.30;99.90;;;;;;5109759;27;20827;-56
2023/08/21 03:05:18;;;;;;;1.20;1.10;;;13.20;99.90;;;;;;5109901;27;20042;-57
2023/08/21 03:07:43;;;;;;;0.95;0.93;;;13.10;99.90;;;;;;5124430;27;20093;-56
2023/08/21 03:10:09;;;;;;;1.52;0.80;;;13.10;99.90;;;;;;5110008;27;20066;-58
2023/08/21 03:12:35;;;;;;;2.67;1.48;;;13.00;99.90;;;;;;5106848;27;20055;-57
2023/08/21 03:15:01;;;;;;;2.15;0.95;;;12.90;99.90;;;;;;5125526;27;20065;-57
2023/08/21 03:17:27;;;;;;;2.28;1.67;;;12.90;99.90;;;;;;5126332;27;20059;-57
2023/08/21 03:19:52;;;;;;;3.10;1.50;;;12.90;99.90;;;;;;5106623;27;20054;-56
2023/08/21 03:22:18;;;;;;;2.55;1.20;;;12.90;99.90;;;;;;5126890;27;20224;-57
2023/08/21 03:24:44;;;;;;;2.67;1.35;;;13.00;99.90;;;;;;5126471;27;20154;-57
2023/08/21 03:27:09;;;;;;;1.23;1.10;;;13.00;99.90;;;;;;5126343;27;20077;-57
2023/08/21 03:29:35;;;;;;;1.00;0.90;;;13.00;99.90;;;;;;5107776;27;20059;-57
2023/08/21 03:32:01;;;;;;;1.60;0.93;;;13.00;99.90;;;;;;5109270;27;20208;-60
2023/08/21 03:34:26;;;;;;;0.88;0.88;;;12.90;99.90;;;;;;5124048;27;20062;-59
2023/08/21 03:36:52;;;;;;;1.15;1.02;;;12.90;99.90;;;;;;5123808;27;20078;-57
2023/08/21 03:39:18;;;;;;;0.95;0.80;;;12.90;99.90;;;;;;5127079;27;20437;-59
2023/08/21 03:41:44;;;;;;;1.10;0.90;;;12.90;99.90;;;;;;5128719;27;20059;-58
2023/08/21 03:44:09;;;;;;;0.93;0.82;;;12.90;99.90;;;;;;5128487;27;20062;-57
2023/08/21 03:46:35;;;;;;;0.68;0.68;;;12.90;99.90;;;;;;5118140;27;20056;-57
2023/08/21 03:49:01;;;;;;;1.33;0.85;;;12.90;99.90;;;;;;5126307;27;20047;-56
2023/08/21 03:51:26;;;;;;;1.75;1.10;;;12.90;99.90;;;;;;5126380;27;20130;-56
2023/08/21 03:53:52;;;;;;;2.22;0.50;;;12.90;99.90;;;;;;5121481;27;20043;-56
2023/08/21 03:56:19;;;;;;;0.85;0.70;;;12.90;99.90;;;;;;5121016;27;20541;-56
2023/08/21 03:58:44;;;;;;;2.65;1.15;;;12.90;99.90;;;;;;5123763;27;20051;-56
2023/08/21 04:01:10;;;;;;;1.70;1.27;;;12.90;99.90;;;;;;5133904;27;20059;-56
2023/08/21 04:03:36;;;;;;;0.70;0.70;;;12.80;99.90;;;;;;5127900;27;20511;-57
2023/08/21 04:06:02;;;;;;;1.33;1.10;;;12.80;99.90;;;;;;5129383;27;20059;-56
2023/08/21 04:08:28;;;;;;;0.73;0.68;;;12.80;99.90;;;;;;5130522;27;20074;-56
2023/08/21 04:10:53;;;;;;;0.75;0.57;;;12.80;99.90;;;;;;5106760;27;20058;-56
2023/08/21 04:13:19;;;;;;;2.17;0.90;;;12.80;99.90;;;;;;5123977;27;20051;-56
2023/08/21 04:18:15;;;;;;;1.05;1.05;;;12.80;99.90;;;;;;5133658;27;20510;-56
2023/08/21 04:20:40;;;;;;;2.15;1.00;;;12.80;99.90;;;;;;5128764;27;20055;-57
2023/08/21 04:23:06;;;;;;;2.10;1.23;;;12.70;99.90;;;;;;5126288;27;20159;-57
2023/08/21 04:25:31;;;;;;;2.58;1.40;;;12.70;99.90;;;;;;5130790;27;20412;-58
2023/08/21 04:27:57;;;;;;;3.05;2.00;;;12.60;99.90;;;;;;5129026;27;20114;-54
2023/08/21 04:30:23;;;;;;;3.58;1.40;;;12.60;99.90;;;;;;5127778;27;20050;-59
2023/08/21 04:32:49;;;;;;;2.80;1.20;;;12.60;99.90;;;;;;5129574;27;20097;-56
2023/08/21 04:35:15;;;;;;;3.03;1.23;;;12.70;99.90;;;;;;5122980;27;20075;-58
2023/08/21 04:37:49;;;;;;;1.10;1.00;;;12.70;99.90;;;;;;5125447;27;20059;-57
2023/08/21 04:40:17;;;;;;;2.33;1.10;;;12.80;99.90;;;;;;5108924;27;20127;-56
2023/08/21 04:42:43;;;;;;;2.35;1.30;;;12.80;99.90;;;;;;5133288;27;20051;-56
2023/08/21 04:45:09;;;;;;;3.55;0.88;;;12.80;99.90;;;;;;5128188;27;20492;-59
2023/08/21 04:47:35;;;;;;;1.30;0.80;;;12.90;99.90;;;;;;5125792;27;20059;-57
2023/08/21 04:50:01;;;;;;;0.90;0.82;;;12.90;99.90;;;;;;5130741;27;20056;-57
2023/08/21 04:52:27;;;;;;;1.08;0.68;;;12.90;99.90;;;;;;5107854;27;20054;-56
2023/08/21 04:54:53;;;;;;;2.97;1.10;;;12.90;99.90;;;;;;5109006;27;20059;-56
2023/08/21 04:57:20;;;;;;;1.20;1.10;;;13.00;99.90;;;;;;5128930;27;20058;-56
2023/08/21 04:59:49;;;;;;;1.58;1.48;;;13.00;99.90;;;;;;5133638;27;20059;-56
2023/08/21 05:02:15;;;;;;;1.48;1.10;;;13.00;99.90;;;;;;5130731;27;20126;-57
2023/08/21 05:04:41;;;;;;;2.78;1.08;;;13.00;99.90;;;;;;5127579;27;20154;-56
2023/08/21 05:07:06;;;;;;;1.80;1.65;;;13.00;99.90;;;;;;5103748;27;20063;-56
2023/08/21 05:09:33;;;;;;;2.63;1.73;;;13.00;99.90;;;;;;5129477;27;20131;-57
2023/08/21 05:11:59;;;;;;;3.72;1.23;;;13.10;99.90;;;;;;5106332;27;20716;-56
2023/08/21 05:14:25;;;;;;;2.38;1.48;;;13.20;99.90;;;;;;5131215;27;20550;-57
2023/08/21 05:16:51;;;;;;;1.95;1.33;;;13.30;99.90;;;;;;5126063;27;20047;-59
2023/08/21 05:19:17;;;;;;;1.48;1.38;;;13.40;99.90;;;;;;5126277;27;20047;-56
2023/08/21 05:21:43;;;;;;;1.63;0.98;;;13.50;99.90;;;;;;5124220;27;20047;-58
2023/08/21 05:24:09;;;;;;;2.75;1.20;;;13.60;99.90;;;;;;5122602;27;20095;-57
2023/08/21 05:26:39;;;;;;;1.60;1.20;;;13.70;99.90;;;;;;5126620;27;20059;-56
2023/08/21 05:29:04;;;;;;;1.23;0.98;;;13.80;99.90;;;;;;5105570;27;20076;-56
2023/08/21 05:31:30;;;;;;;1.40;0.85;;;13.90;99.90;;;;;;5123792;27;20055;-56
2023/08/21 05:33:56;;;;;;;2.65;1.08;;;14.10;99.90;;;;;;5124436;27;20110;-56
2023/08/21 05:36:21;;;;;;;1.85;1.10;;;14.20;99.90;;;;;;5130559;27;20477;-56
2023/08/21 05:38:51;;;;;;;3.60;1.30;;;14.30;99.90;;;;;;5129612;27;20166;-56
2023/08/21 05:41:17;;;;;;;1.33;1.25;;;14.50;99.90;;;;;;5124913;27;21254;-56
2023/08/21 05:43:43;;;;;;;2.13;0.98;;;14.60;99.90;;;;;;5128368;27;20142;-56
2023/08/21 05:46:09;;;;;;;1.17;1.02;;;14.70;99.90;;;;;;5120958;27;21496;-56
2023/08/21 05:48:35;;;;;;;2.15;1.33;;;14.90;99.90;;;;;;5112398;27;20059;-56
2023/08/21 05:51:00;;;;;;;2.60;1.17;;;15.00;99.90;;;;;;5064595;28;20108;-56
2023/08/21 05:53:26;;;;;;;2.58;1.23;;;15.00;99.90;;;;;;5122054;27;20115;-56
2023/08/21 05:55:53;;;;;;;2.63;1.63;;;15.00;99.90;;;;;;5108069;27;20055;-56
2023/08/21 05:58:19;;;;;;;3.03;1.45;;;15.00;99.90;;;;;;5126027;27;20051;-56
2023/08/21 06:03:11;;;;;;;2.63;1.05;;;15.20;99.90;;;;;;5121760;27;20082;-56
2023/08/21 06:05:37;;;;;;;1.27;0.90;;;15.20;99.90;;;;;;5124204;27;20079;-56
2023/08/21 06:08:02;;;;;;;1.90;1.05;;;15.40;99.90;;;;;;5122036;27;20055;-56
2023/08/21 06:10:28;;;;;;;3.17;1.60;;;15.60;99.90;;;;;;5123441;27;20054;-57
2023/08/21 06:12:54;;;;;;;2.17;1.52;;;15.70;99.90;;;;;;5123626;27;20511;-54
2023/08/21 06:15:19;;;;;;;2.90;1.52;;;16.00;99.90;;;;;;5101759;27;20051;-56
2023/08/21 06:17:49;;;;;;;4.18;1.67;;;16.20;99.90;;;;;;5112788;27;20047;-56
2023/08/21 06:20:15;;;;;;;1.38;1.10;;;16.40;99.90;;;;;;5112939;27;21225;-58
2023/08/21 06:22:40;;;;;;;3.95;2.08;;;16.60;99.90;;;;;;5120519;27;20089;-56
2023/08/21 06:25:09;;;;;;;1.67;1.58;;;16.90;99.90;;;;;;5123029;27;20059;-56
2023/08/21 06:27:34;;;;;;;8.23;2.67;;;17.20;99.90;;;;;;5130854;27;20141;-57
2023/08/21 06:30:00;;;;;;;4.13;2.72;;;17.30;99.90;;;;;;5126448;27;20057;-56
2023/08/21 06:32:26;;;;;;;2.72;1.60;;;17.60;99.90;;;;;;5109951;27;20071;-57
2023/08/21 06:34:52;;;;;;;3.05;1.60;;;18.10;99.90;;;;;;5128146;27;20047;-55
2023/08/21 06:37:17;;;;;;;5.80;1.85;;;18.20;99.90;;;;;;5125262;27;20510;-56
2023/08/21 06:39:43;;;;;;;6.38;1.75;;;18.50;99.90;;;;;;5087460;27;20060;-63
2023/08/21 06:42:09;;;;;;;5.60;1.67;;;18.70;99.90;;;;;;5109182;27;21008;-57
2023/08/21 06:44:35;;;;;;;6.38;2.03;;;19.00;99.90;;;;;;5096570;27;20051;-63
2023/08/21 06:47:01;;;;;;;5.85;1.90;;;19.10;99.90;;;;;;5084402;27;1124391;-64
2023/08/21 06:49:27;;;;;;;5.32;2.83;;;19.30;99.90;;;;;;5104163;27;20519;-59
2023/08/21 06:51:52;;;;;;;4.55;1.60;;;19.50;99.90;;;;;;5104225;27;20051;-58
2023/08/21 06:54:18;;;;;;;5.03;2.67;;;19.70;99.90;;;;;;5100355;27;20508;-57
2023/08/21 06:56:44;;;;;;;6.38;1.77;;;20.00;99.90;;;;;;5103673;27;20116;-58
2023/08/21 06:59:10;;;;;;;2.65;1.20;;;20.30;99.90;;;;;;5096837;27;20900;-56
2023/08/21 07:01:36;;;;;;;3.30;1.30;;;20.50;99.90;;;;;;5109572;27;20087;-56
2023/08/21 07:04:01;;;;;;;7.05;2.33;;;20.70;99.90;;;;;;5097259;27;20051;-62
2023/08/21 07:06:31;;;;;;;3.45;1.10;;;20.90;99.90;;;;;;5109550;27;20055;-59
2023/08/21 07:08:56;;;;;;;5.82;1.13;;;21.10;99.90;;;;;;5116175;27;20504;-58
2023/08/21 07:11:22;;;;;;;4.40;1.40;;;21.30;99.90;;;;;;5109418;27;20050;-60
2023/08/21 07:13:49;;;;;;;3.08;1.63;;;21.60;99.90;;;;;;5108623;27;20835;-57
2023/08/21 07:16:15;;;;;;;6.75;1.48;;;21.80;99.90;;;;;;5113966;27;20058;-57
2023/08/21 07:18:41;;;;;;;2.60;1.05;;;21.90;99.90;;;;;;5109147;27;20055;-57
2023/08/21 07:21:06;;;;;;;8.32;1.42;;;22.10;99.90;;;;;;5106958;27;20082;-57
2023/08/21 07:23:33;;;;;;;4.28;1.60;;;22.20;99.90;;;;;;5108338;27;20516;-57
2023/08/21 07:26:00;;;;;;;3.92;1.08;;;22.30;99.90;;;;;;5100877;27;20367;-59
2023/08/21 07:28:26;;;;;;;2.15;0.77;;;22.40;99.90;;;;;;5092166;27;20058;-57
2023/08/21 07:30:58;;;;;;;4.38;1.00;;;22.30;99.90;;;;;;5098896;27;20052;-57
2023/08/21 07:33:25;;;;;;;2.65;0.88;;;22.50;99.90;;;;;;5098593;27;20055;-57
2023/08/21 07:36:18;;;;;;;3.45;0.98;;;22.60;99.90;;;;;;5098336;27;20051;-56
2023/08/21 07:38:44;;;;;;;2.15;1.35;;;22.50;99.90;;;;;;5110254;27;20085;-57
2023/08/21 07:41:11;;;;;;;3.58;1.20;;;22.80;99.90;;;;;;5102329;27;20449;-57
2023/08/21 07:43:39;;;;;;;1.48;0.95;;;22.90;99.90;;;;;;5103909;27;20114;-57
2023/08/21 07:46:07;;;;;;;1.65;0.70;;;23.10;99.90;;;;;;5107020;27;20141;-57
2023/08/21 07:48:33;;;;;;;4.60;0.80;;;23.40;99.90;;;;;;5089891;28;20062;-58
2023/08/21 07:50:59;;;;;;;5.82;1.40;;;23.70;99.90;;;;;;5103520;27;20055;-57
2023/08/21 07:53:25;;;;;;;3.70;1.17;;;23.70;99.90;;;;;;5103654;27;20115;-58
2023/08/21 07:55:51;;;;;;;3.08;1.08;;;23.80;99.90;;;;;;5110107;27;20047;-56
2023/08/21 07:58:18;;;;;;;2.00;0.77;;;23.90;99.90;;;;;;5094820;27;20054;-58
2023/08/21 08:00:44;;;;;;;1.20;0.63;;;24.20;99.90;;;;;;5112573;27;20055;-57
2023/08/21 08:03:11;;;;;;;1.85;0.82;;;24.40;99.90;;;;;;5105695;27;20694;-57
2023/08/21 08:05:38;;;;;;;2.75;1.02;;;24.90;99.90;;;;;;5123316;27;20066;-60
2023/08/21 08:08:04;;;;;;;3.30;0.98;;;25.40;99.90;;;;;;5107818;27;20066;-59
2023/08/21 08:10:30;;;;;;;4.50;1.58;;;25.80;99.90;;;;;;5114818;27;20176;-57
2023/08/21 08:12:55;;;;;;;2.35;0.65;;;25.60;99.90;;;;;;5109331;27;20055;-57
2023/08/21 08:15:23;;;;;;;1.92;0.77;;;26.10;99.90;;;;;;5121326;27;20065;-57
2023/08/21 08:17:52;;;;;;;2.58;0.93;;;26.50;99.90;;;;;;5123537;27;20051;-57
2023/08/21 08:20:21;;;;;;;3.03;0.70;;;26.60;99.90;;;;;;5115634;27;20058;-57
2023/08/21 08:22:51;;;;;;;4.13;1.08;;;27.00;99.90;;;;;;5122391;27;20707;-58
2023/08/21 08:25:16;;;;;;;2.92;0.90;;;27.60;99.90;;;;;;5109897;27;20067;-57
2023/08/21 08:27:43;;;;;;;3.35;0.70;;;28.00;99.90;;;;;;5099234;28;20056;-57
2023/08/21 08:30:10;;;;;;;3.42;0.77;;;28.00;99.90;;;;;;5108085;27;20046;-60
2023/08/21 08:32:35;;;;;;;3.88;0.88;;;28.20;99.90;;;;;;5100637;27;20249;-61
2023/08/21 08:35:03;;;;;;;4.35;1.10;;;28.30;99.90;;;;;;5075602;28;20051;-59
2023/08/21 08:37:29;;;;;;;1.40;0.60;;;28.80;99.90;;;;;;5086196;28;20552;-62
2023/08/21 08:39:55;;;;;;;1.67;0.82;;;28.90;99.90;;;;;;5116662;27;20047;-59
2023/08/21 08:42:20;;;;;;;3.85;0.65;;;29.20;99.90;;;;;;5109129;27;20704;-57
2023/08/21 08:44:53;;;;;;;1.90;0.80;;;29.10;99.90;;;;;;5107009;28;20055;-57
2023/08/21 08:47:19;;;;;;;4.95;1.23;;;29.00;99.90;;;;;;5098720;27;20078;-63
2023/08/21 08:52:11;;;;;;;1.83;0.90;;;28.80;99.90;;;;;;5102214;27;20055;-57
2023/08/21 08:54:38;;;;;;;1.98;0.82;;;29.10;99.90;;;;;;5088805;27;20081;-57
2023/08/21 08:57:04;;;;;;;2.17;0.98;;;29.30;99.90;;;;;;5109576;27;20865;-57
2023/08/21 08:59:33;;;;;;;3.50;0.80;;;29.20;99.90;;;;;;5129776;27;20054;-58
2023/08/21 09:02:00;;;;;;;2.58;0.85;;;29.90;99.90;;;;;;5135071;27;20245;-58
2023/08/21 09:04:25;;;;;;;1.30;0.52;;;30.00;99.90;;;;;;5116566;27;20046;-59
2023/08/21 09:06:51;;;;;;;1.50;0.57;;;29.70;99.90;;;;;;5105228;27;20052;-59
2023/08/21 09:09:17;;;;;;;1.67;0.73;;;30.40;99.90;;;;;;5098584;27;21820;-58
2023/08/21 09:11:44;;;;;;;2.38;0.70;;;30.80;99.90;;;;;;5134157;27;20047;-58
2023/08/21 09:14:11;;;;;;;2.90;0.73;;;30.20;99.90;;;;;;5117647;27;20139;-57
2023/08/21 09:16:37;;;;;;;2.40;0.68;;;30.40;99.90;;;;;;5124825;27;20381;-57
2023/08/21 09:19:03;;;;;;;1.25;0.40;;;31.00;99.90;;;;;;5112359;27;20509;-58
2023/08/21 09:21:29;;;;;;;3.10;0.75;;;30.90;99.90;;;;;;5076626;28;20142;-58
2023/08/21 09:24:04;;;;;;;2.88;0.73;;;31.50;99.90;;;;;;5112347;27;20061;-58
2023/08/21 09:26:34;;;;;;;2.17;0.60;;;31.10;99.90;;;;;;5101612;27;20113;-59
2023/08/21 09:29:04;;;;;;;2.17;0.52;;;31.00;99.90;;;;;;5116204;27;20062;-58
2023/08/21 09:31:31;;;;;;;1.50;0.50;;;31.40;99.90;;;;;;5124314;27;20096;-58
2023/08/21 09:33:59;;;;;;;2.25;0.60;;;31.70;99.90;;;;;;5129856;27;20520;-58
2023/08/21 09:36:24;;;;;;;1.85;0.57;;;31.30;99.90;;;;;;5121114;27;20397;-58
2023/08/21 09:38:52;;;;;;;1.35;0.68;;;31.20;99.90;;;;;;5122027;27;20062;-57
2023/08/21 09:41:22;;;;;;;3.63;1.35;;;30.70;99.90;;;;;;5097766;27;20727;-57
2023/08/21 09:43:51;;;;;;;1.55;0.40;;;31.30;99.90;;;;;;5099086;28;20587;-58
2023/08/21 09:46:27;;;;;;;1.75;0.40;;;31.20;99.90;;;;;;5127435;27;21204;-58
2023/08/21 09:48:54;;;;;;;1.83;0.60;;;31.20;99.90;;;;;;5108210;27;20502;-58
2023/08/21 09:51:20;;;;;;;1.50;0.57;;;30.60;99.90;;;;;;5134035;27;20087;-58
2023/08/21 09:53:50;;;;;;;3.65;0.80;;;30.50;99.90;;;;;;5115894;27;20423;-59
2023/08/21 09:56:19;;;;;;;0.95;0.50;;;30.90;99.90;;;;;;5121299;27;20057;-57
2023/08/21 09:58:49;;;;;;;1.52;0.65;;;30.20;99.70;;;;;;5124967;27;20083;-58
2023/08/21 10:01:17;;;;;;;2.63;0.80;;;30.40;99.90;;;;;;5128021;27;20054;-58
2023/08/21 10:03:47;;;;;;;1.67;0.50;;;30.20;99.90;;;;;;5106474;27;20410;-58
2023/08/21 10:06:18;;;;;;;1.08;0.52;;;30.30;99.90;;;;;;5137925;27;20047;-58
2023/08/21 10:08:49;;;;;;;2.08;0.75;;;30.30;99.90;;;;;;5114945;27;20059;-58
2023/08/21 10:11:20;;;;;;;1.20;0.63;;;31.00;99.90;;;;;;5113662;27;20047;-58
2023/08/21 10:13:51;;;;;;;1.65;0.60;;;30.60;99.10;;;;;;5111133;27;20054;-59
2023/08/21 10:16:21;;;;;;;2.80;0.60;;;30.90;99.90;;;;;;5102695;27;20205;-58
2023/08/21 10:18:51;;;;;;;2.30;1.17;;;31.10;99.90;;;;;;5109314;27;20055;-57
2023/08/21 10:21:19;;;;;;;3.22;0.70;;;31.00;99.90;;;;;;5108250;27;20104;-57
2023/08/21 10:23:49;;;;;;;1.63;0.82;;;30.30;99.90;;;;;;5121395;27;20055;-58
2023/08/21 10:26:18;;;;;;;1.52;0.80;;;30.60;99.90;;;;;;5107480;27;20299;-57
2023/08/21 10:28:50;;;;;;;3.33;0.70;;;30.50;99.90;;;;;;5104868;27;20051;-58
2023/08/21 10:31:39;;;;;;;0.60;0.45;;;30.80;99.60;;;;;;5097871;27;20063;-57
2023/08/21 10:34:09;;;;;;;2.78;0.65;;;30.40;99.90;;;;;;5103066;27;20068;-57
2023/08/21 10:36:44;;;;;;;2.45;0.80;;;30.30;99.90;;;;;;5105842;27;20083;-59
2023/08/21 10:39:33;;;;;;;1.48;0.57;;;30.60;99.90;;;;;;5105810;27;20118;-58
2023/08/21 10:42:04;;;;;;;1.42;0.60;;;31.10;99.20;;;;;;5102855;27;20775;-57
2023/08/21 10:44:51;;;;;;;1.60;0.57;;;31.00;99.50;;;;;;5115436;27;20134;-58
2023/08/21 10:47:20;;;;;;;1.35;0.68;;;30.80;99.90;;;;;;5118437;27;20551;-58
2023/08/21 10:49:49;;;;;;;0.52;0.43;;;31.10;99.90;;;;;;5126126;27;20059;-58
2023/08/21 10:52:26;;;;;;;3.13;0.88;;;30.70;99.90;;;;;;5121922;27;20549;-58
2023/08/21 10:54:54;;;;;;;1.48;0.50;;;30.90;99.90;;;;;;5110785;27;20059;-59
2023/08/21 10:57:21;;;;;;;2.38;0.75;;;31.50;99.70;;;;;;5100256;27;20179;-57
2023/08/21 10:59:50;;;;;;;2.30;0.60;;;31.40;99.60;;;;;;5118228;27;20631;-57
2023/08/21 11:02:17;;;;;;;1.05;0.93;;;31.30;99.40;;;;;;5104873;27;20043;-58
2023/08/21 11:04:44;;;;;;;1.65;0.50;;;31.10;99.40;;;;;;5095622;28;20138;-58
2023/08/21 11:07:10;;;;;;;4.43;0.98;;;31.70;99.00;;;;;;5071189;27;1242367;-58
2023/08/21 11:09:37;;;;;;;1.23;0.70;;;31.80;98.70;;;;;;5113738;27;20138;-59
2023/08/21 11:12:10;;;;;;;2.90;0.80;;;32.00;98.90;;;;;;5111255;27;20055;-61
2023/08/21 11:14:36;;;;;;;;;;;32.10;98.50;;;;;;5099613;27;20573;-58
2023/08/21 11:17:02;;;;;;;1.65;0.55;;;31.40;98.00;;;;;;5110196;27;19926;-58
2023/08/21 11:19:33;;;;;;;3.00;0.80;;;31.60;98.00;;;;;;5111575;27;20111;-58
2023/08/21 11:22:06;;;;;;;2.88;0.88;;;31.40;98.90;;;;;;5098149;27;20515;-58
2023/08/21 11:24:43;;;;;;;2.08;0.47;;;31.40;98.50;;;;;;5116480;27;20051;-58
2023/08/21 11:27:12;;;;;;;2.45;0.43;;;32.10;97.60;;;;;;5123261;27;20749;-59
2023/08/21 11:29:44;;;;;;;1.10;0.65;;;34.40;97.90;;;;;;5110949;27;20062;-57
2023/08/21 11:32:10;;;;;;;2.05;0.65;;;35.90;95.30;;;;;;5085928;28;21250;-58
2023/08/21 11:34:36;;;;;;;1.35;0.75;;;36.30;93.00;;;;;;5108397;27;20055;-62
2023/08/21 11:37:02;;;;;;;2.38;0.68;;;36.00;94.60;;;;;;5099920;27;20068;-58
2023/08/21 11:39:39;;;;;;;3.67;0.90;;;38.00;93.60;;;;;;5106829;27;20061;-58
2023/08/21 11:42:11;;;;;;;4.65;0.65;;;39.40;92.90;;;;;;5102950;27;20648;-58
2023/08/21 11:44:45;;;;;;;4.22;0.90;;;37.20;91.80;;;;;;5104190;27;20519;-59
2023/08/21 11:47:16;;;;;;;1.52;0.60;;;37.80;92.20;;;;;;5090551;28;20059;-58
2023/08/21 11:49:43;;;;;;;1.92;0.77;;;37.60;93.10;;;;;;5099377;28;20194;-58
2023/08/21 11:52:09;;;;;;;0.90;0.43;;;39.50;92.00;;;;;;5113520;27;20509;-58
2023/08/21 11:54:37;;;;;;;0.90;0.52;;;35.00;92.70;;;;;;5114887;27;20050;-58
2023/08/21 11:57:07;;;;;;;1.65;0.80;;;33.60;94.50;;;;;;5113876;27;20748;-58
2023/08/21 11:59:33;;;;;;;3.25;0.82;;;34.10;93.70;;;;;;5115841;27;20112;-58
2023/08/21 12:01:59;;;;;;;1.98;0.73;;;32.60;94.20;;;;;;5125762;27;20051;-57
2023/08/21 12:04:25;;;;;;;1.00;0.57;;;31.70;94.80;;;;;;5122422;27;20074;-58
2023/08/21 12:06:52;;;;;;;1.30;0.50;;;30.60;95.10;;;;;;5109949;27;20150;-57
2023/08/21 12:09:19;;;;;;;1.35;0.50;;;33.60;94.80;;;;;;5111870;27;20055;-58
2023/08/21 12:11:45;;;;;;;1.52;0.90;;;36.30;92.80;;;;;;5129109;27;20078;-58
2023/08/21 12:14:11;;;;;;;2.83;0.40;;;37.90;92.20;;;;;;5121327;27;20155;-56
2023/08/21 12:16:37;;;;;;;1.65;0.77;;;38.20;91.70;;;;;;5107092;27;20406;-58
2023/08/21 12:19:03;;;;;;;1.10;0.52;;;39.10;91.10;;;;;;5083066;28;20055;-58
2023/08/21 12:21:29;;;;;;;2.20;0.52;;;38.60;91.20;;;;;;5099699;27;20062;-58
2023/08/21 12:23:54;;;;;;;2.25;0.50;;;39.80;90.40;;;;;;5115765;27;20056;-58
2023/08/21 12:26:20;;;;;;;1.63;0.52;;;39.80;89.30;;;;;;5097679;27;20066;-58
2023/08/21 12:28:50;;;;;;;2.40;0.80;;;40.10;89.60;;;;;;5115763;27;20055;-59
2023/08/21 12:31:16;;;;;;;1.75;0.50;;;41.10;87.40;;;;;;5106221;27;20395;-57
2023/08/21 12:33:45;;;;;;;1.58;0.65;;;41.20;86.30;;;;;;5111856;27;20064;-58
2023/08/21 12:36:11;;;;;;;1.63;0.82;;;40.40;86.30;;;;;;5115460;27;21516;-59
2023/08/21 12:38:36;;;;;;;2.20;0.60;;;40.30;85.90;;;;;;5105935;27;20750;-57
2023/08/21 12:41:02;;;;;;;2.38;0.80;;;41.30;85.80;;;;;;5102562;27;20063;-59
2023/08/21 12:43:28;;;;;;;1.45;0.70;;;42.10;83.90;;;;;;5107394;27;20511;-58
2023/08/21 12:45:55;;;;;;;2.58;0.70;;;40.40;85.00;;;;;;5123948;27;20058;-62
2023/08/21 12:48:20;;;;;;;1.65;0.70;;;42.10;83.70;;;;;;5117487;27;20052;-57
2023/08/21 12:53:15;;;;;;;2.10;0.57;;;40.90;84.80;;;;;;5109795;27;20128;-58
2023/08/21 12:55:42;;;;;;;3.92;0.82;;;41.00;83.90;;;;;;5122600;27;20154;-58
2023/08/21 12:58:08;;;;;;;2.00;1.25;;;42.50;83.70;;;;;;5081183;27;20055;-58